createdAt,value
2019-05-22T00:01:34.738Z,25.80
2019-05-22T00:04:12.969Z,26.30
2019-05-22T00:06:45.676Z,27.10
2019-05-22T00:09:28.656Z,26.90
2019-05-22T00:12:00.812Z,27.40
2019-05-22T00:14:32.622Z,25.90
2019-05-22T00:17:07.558Z,26.80
2019-05-22T00:19:40.215Z,26.50
2019-05-22T00:22:31.032Z,25.80
2019-05-22T00:25:02.361Z,25.90
2019-05-22T00:27:32.922Z,26.50
2019-05-22T00:30:06.032Z,26.00
2019-05-22T00:32:39.405Z,27.60
2019-05-22T00:35:10.500Z,28.00
2019-05-22T00:37:42.763Z,28.00
2019-05-22T00:40:15.309Z,26.80
2019-05-22T00:43:02.921Z,27.20
2019-05-22T00:45:21.903Z,26.00
2019-05-22T00:47:52.692Z,26.00
2019-05-22T00:50:30.620Z,26.40
2019-05-22T00:53:22.237Z,26.80
2019-05-22T00:56:02.306Z,28.10
2019-05-22T00:58:36.454Z,27.40
2019-05-22T01:01:32.484Z,26.10
2019-05-22T01:04:05.760Z,26.00
2019-05-22T01:06:37.715Z,25.70
2019-05-22T01:09:16.568Z,26.40
2019-05-22T01:11:48.463Z,26.60
2019-05-22T01:14:21.195Z,26.90
2019-05-22T01:16:52.894Z,26.90
2019-05-22T01:19:25.137Z,27.40
2019-05-22T01:21:56.382Z,26.80
2019-05-22T01:24:27.869Z,27.60
2019-05-22T01:27:00.123Z,27.40
2019-05-22T01:29:31.113Z,27.50
2019-05-22T01:32:14.030Z,26.10
2019-05-22T01:34:45.066Z,27.10
2019-05-22T01:37:17.974Z,26.80
2019-05-22T01:39:58.529Z,26.60
2019-05-22T01:42:37.330Z,26.90
2019-05-22T01:45:11.507Z,26.80
2019-05-22T01:47:50.970Z,26.20
2019-05-22T01:50:51.100Z,25.90
2019-05-22T01:53:24.314Z,24.20
2019-05-22T01:56:06.315Z,23.80
2019-05-22T01:58:39.197Z,23.50
2019-05-22T02:01:14.097Z,24.90
2019-05-22T02:03:47.481Z,24.10
2019-05-22T02:06:19.620Z,25.80
2019-05-22T02:09:24.491Z,25.00
2019-05-22T02:12:00.898Z,25.40
2019-05-22T02:14:32.373Z,25.50
2019-05-22T02:17:03.007Z,25.30
2019-05-22T02:19:36.836Z,25.60
2019-05-22T02:22:11.006Z,25.80
2019-05-22T02:24:43.825Z,25.20
2019-05-22T02:27:16.337Z,25.30
2019-05-22T02:29:49.884Z,25.20
2019-05-22T02:32:23.341Z,24.50
2019-05-22T02:34:56.835Z,24.40
2019-05-22T02:37:29.032Z,25.90
2019-05-22T02:40:02.611Z,25.20
2019-05-22T02:42:33.112Z,25.60
2019-05-22T02:45:05.172Z,24.30
2019-05-22T02:47:36.653Z,24.40
2019-05-22T02:50:08.710Z,24.90
2019-05-22T02:52:41.073Z,25.50
2019-05-22T02:55:12.293Z,25.10
2019-05-22T02:57:43.092Z,25.10
2019-05-22T03:00:14.873Z,25.10
2019-05-22T03:02:51.087Z,24.90
2019-05-22T03:05:22.827Z,25.50
2019-05-22T03:07:54.693Z,25.40
2019-05-22T03:10:27.644Z,24.40
2019-05-22T03:12:58.687Z,24.30
2019-05-22T03:15:29.791Z,24.00
2019-05-22T03:18:05.322Z,24.60
2019-05-22T03:20:35.706Z,25.30
2019-05-22T03:23:41.556Z,25.80
2019-05-22T03:26:13.134Z,26.80
2019-05-22T03:28:43.939Z,25.70
2019-05-22T03:31:15.971Z,26.20
2019-05-22T03:33:47.292Z,26.50
2019-05-22T03:36:21.159Z,26.70
2019-05-22T03:38:55.437Z,26.70
2019-05-22T03:41:27.825Z,26.20
2019-05-22T03:44:01.619Z,26.10
2019-05-22T03:46:36.177Z,25.50
2019-05-22T03:49:27.500Z,26.50
2019-05-22T03:51:42.497Z,26.20
2019-05-22T03:54:13.090Z,26.10
2019-05-22T03:56:43.946Z,27.40
2019-05-22T03:59:15.206Z,27.90
2019-05-22T04:01:47.882Z,27.90
2019-05-22T04:04:36.782Z,28.90
2019-05-22T04:07:12.046Z,28.00
2019-05-22T04:09:44.838Z,28.00
2019-05-22T04:12:16.078Z,28.30
2019-05-22T04:14:47.126Z,28.20
2019-05-22T04:17:17.703Z,28.30
2019-05-22T04:19:52.092Z,29.10
2019-05-22T04:22:22.651Z,29.40
2019-05-22T04:24:54.877Z,29.40
2019-05-22T04:27:26.104Z,29.50
2019-05-22T04:29:57.063Z,30.20
2019-05-22T04:32:33.066Z,30.60
2019-05-22T04:35:13.167Z,29.80
2019-05-22T04:37:44.784Z,30.30
2019-05-22T04:40:55.749Z,29.40
2019-05-22T04:43:31.256Z,29.80
2019-05-22T04:46:03.636Z,30.40
2019-05-22T04:48:36.457Z,30.90
2019-05-22T04:51:43.214Z,31.90
2019-05-22T04:54:13.632Z,32.40
2019-05-22T04:56:44.548Z,29.40
2019-05-22T04:59:16.760Z,29.20
2019-05-22T05:01:47.447Z,28.30
2019-05-22T05:04:18.823Z,28.60
2019-05-22T05:06:49.880Z,28.00
2019-05-22T05:09:20.627Z,27.80
2019-05-22T05:11:51.135Z,26.90
2019-05-22T05:14:23.250Z,28.10
2019-05-22T05:16:55.675Z,27.10
2019-05-22T05:19:26.625Z,27.30
2019-05-22T05:22:00.724Z,27.80
2019-05-22T05:24:31.248Z,27.10
2019-05-22T05:27:03.094Z,26.10
2019-05-22T05:29:35.266Z,26.60
2019-05-22T05:32:05.999Z,26.40
2019-05-22T05:34:59.618Z,27.80
2019-05-22T05:37:30.688Z,28.20
2019-05-22T05:40:29.160Z,27.70
2019-05-22T05:43:01.585Z,25.90
2019-05-22T05:45:33.761Z,26.90
2019-05-22T05:48:06.986Z,27.20
2019-05-22T05:50:39.909Z,26.60
2019-05-22T05:53:16.878Z,25.60
2019-05-22T05:56:20.981Z,25.80
2019-05-22T05:58:55.084Z,24.80
2019-05-22T06:01:31.926Z,23.20
2019-05-22T06:04:05.420Z,23.80
2019-05-22T06:07:17.528Z,24.80
2019-05-22T06:10:23.896Z,24.20
2019-05-22T06:12:54.778Z,24.40
2019-05-22T06:15:46.549Z,24.10
2019-05-22T06:18:31.913Z,21.10
2019-05-22T06:21:06.862Z,22.50
2019-05-22T06:24:15.402Z,21.70
2019-05-22T06:26:55.747Z,22.10
2019-05-22T06:29:31.531Z,21.80
2019-05-22T06:32:43.300Z,19.70
2019-05-22T06:35:15.913Z,19.80
2019-05-22T06:37:57.751Z,19.50
2019-05-22T06:40:28.635Z,20.90
2019-05-22T06:43:36.118Z,19.90
2019-05-22T06:46:07.074Z,19.20
2019-05-22T06:48:38.104Z,19.60
2019-05-22T06:51:19.218Z,19.20
2019-05-22T06:53:41.384Z,19.50
2019-05-22T06:56:12.516Z,19.50
2019-05-22T06:58:43.977Z,18.40
2019-05-22T07:01:17.097Z,17.20
2019-05-22T07:03:51.539Z,17.20
2019-05-22T07:06:24.378Z,15.10
2019-05-22T07:08:56.773Z,16.10
2019-05-22T07:11:27.813Z,15.10
2019-05-22T07:14:00.978Z,13.20
2019-05-22T07:16:31.848Z,12.60
2019-05-22T07:19:04.109Z,12.60
2019-05-22T07:21:35.169Z,12.80
2019-05-22T07:24:06.803Z,11.10
2019-05-22T07:26:39.159Z,11.20
2019-05-22T07:29:11.142Z,11.70
2019-05-22T07:31:42.588Z,12.90
2019-05-22T07:34:14.126Z,13.50
2019-05-22T07:36:47.267Z,13.70
2019-05-22T07:39:18.551Z,12.50
2019-05-22T07:41:50.406Z,11.90
2019-05-22T07:44:21.212Z,12.40
2019-05-22T07:46:54.402Z,12.10
2019-05-22T07:49:26.539Z,12.40
2019-05-22T07:52:01.796Z,11.90
2019-05-22T07:54:33.542Z,12.70
2019-05-22T07:57:06.631Z,14.50
2019-05-22T07:59:38.927Z,13.80
2019-05-22T08:02:13.946Z,14.30
2019-05-22T08:04:45.793Z,13.00
2019-05-22T08:07:18.930Z,13.40
2019-05-22T08:09:49.935Z,12.70
2019-05-22T08:12:21.214Z,13.20
2019-05-22T08:14:52.286Z,13.10
2019-05-22T08:17:26.376Z,13.30
2019-05-22T08:19:57.223Z,12.60
2019-05-22T08:22:29.740Z,12.10
2019-05-22T08:25:02.635Z,11.50
2019-05-22T08:27:34.870Z,8.30
2019-05-22T08:30:07.422Z,9.40
2019-05-22T08:32:38.726Z,8.50
2019-05-22T08:35:11.810Z,9.20
2019-05-22T08:37:42.975Z,9.40
2019-05-22T08:40:17.653Z,8.40
2019-05-22T08:42:49.973Z,8.30
2019-05-22T08:45:23.597Z,9.00
2019-05-22T08:48:15.019Z,6.80
2019-05-22T08:50:47.518Z,7.80
2019-05-22T08:53:19.262Z,8.10
2019-05-22T08:55:50.875Z,6.90
2019-05-22T08:58:21.774Z,7.20
2019-05-22T09:00:55.153Z,7.60
2019-05-22T09:03:26.114Z,7.00
2019-05-22T09:05:59.308Z,7.60
2019-05-22T09:08:30.777Z,8.50
2019-05-22T09:11:01.217Z,8.50
2019-05-22T09:13:33.417Z,7.20
2019-05-22T09:16:05.796Z,7.00
2019-05-22T09:18:36.427Z,7.20
2019-05-22T09:21:09.141Z,7.30
2019-05-22T09:23:42.995Z,5.40
2019-05-22T09:26:14.442Z,6.30
2019-05-22T09:28:45.279Z,6.60
2019-05-22T09:31:15.777Z,5.90
2019-05-22T09:33:46.660Z,5.00
2019-05-22T09:36:17.591Z,6.50
2019-05-22T09:38:52.208Z,5.70
2019-05-22T09:41:21.176Z,6.10
2019-05-22T09:43:52.930Z,4.80
2019-05-22T09:46:25.726Z,4.70
2019-05-22T09:48:56.685Z,3.50
2019-05-22T09:51:28.174Z,3.10
2019-05-22T09:53:59.634Z,2.10
2019-05-22T09:56:30.007Z,1.00
2019-05-22T09:59:00.429Z,1.00
2019-05-22T10:01:32.958Z,1.00
2019-05-22T10:04:04.683Z,1.00
2019-05-22T10:06:35.889Z,1.00
2019-05-22T10:09:09.162Z,1.00
2019-05-22T10:11:39.550Z,1.00
2019-05-22T10:14:12.125Z,1.00
2019-05-22T10:16:42.966Z,1.00
2019-05-22T10:19:15.599Z,1.00
2019-05-22T10:21:48.043Z,1.00
2019-05-22T10:24:19.697Z,1.00
2019-05-22T10:26:51.056Z,1.00
2019-05-22T10:29:21.858Z,1.00
2019-05-22T10:31:53.762Z,1.00
2019-05-22T10:34:25.227Z,1.00
2019-05-22T10:36:56.339Z,1.00
2019-05-22T10:39:28.083Z,1.00
2019-05-22T10:41:59.520Z,1.00
2019-05-22T10:44:33.200Z,1.00
2019-05-22T10:47:04.470Z,1.00
2019-05-22T10:49:36.767Z,1.00
2019-05-22T10:52:07.795Z,1.50
2019-05-22T10:54:39.309Z,3.40
2019-05-22T10:57:11.388Z,1.80
2019-05-22T10:59:43.315Z,1.00
2019-05-22T11:02:16.032Z,1.00
2019-05-22T11:04:46.919Z,1.00
2019-05-22T11:07:18.434Z,2.20
2019-05-22T11:09:50.783Z,1.70
2019-05-22T11:12:22.307Z,1.00
2019-05-22T11:14:53.674Z,1.00
2019-05-22T11:17:26.574Z,1.00
2019-05-22T11:19:57.465Z,1.00
2019-05-22T11:22:29.787Z,1.00
2019-05-22T11:25:00.354Z,1.00
2019-05-22T11:27:31.885Z,1.00
2019-05-22T11:30:03.642Z,1.00
2019-05-22T11:32:36.350Z,1.00
2019-05-22T11:35:08.762Z,1.00
2019-05-22T11:37:40.682Z,1.00
2019-05-22T11:40:13.513Z,1.00
2019-05-22T11:42:45.616Z,1.00
2019-05-22T11:45:19.568Z,1.00
2019-05-22T11:47:53.287Z,1.00
2019-05-22T11:50:25.708Z,1.00
2019-05-22T11:52:56.480Z,1.00
2019-05-22T11:55:44.365Z,1.00
2019-05-22T11:58:02.023Z,1.00
2019-05-22T12:00:33.023Z,1.00
2019-05-22T12:03:05.619Z,1.00
2019-05-22T12:05:36.763Z,1.00
2019-05-22T12:08:08.371Z,1.00
2019-05-22T12:10:39.258Z,1.00
2019-05-22T12:13:10.739Z,1.00
2019-05-22T12:15:42.692Z,1.00
2019-05-22T12:18:15.001Z,1.00
2019-05-22T12:20:45.518Z,1.00
2019-05-22T12:23:16.139Z,1.00
2019-05-22T12:25:46.969Z,1.00
2019-05-22T12:28:19.436Z,1.00
2019-05-22T12:30:50.559Z,1.00
2019-05-22T12:33:23.968Z,1.00
2019-05-22T12:35:56.411Z,1.00
2019-05-22T12:38:27.868Z,1.00
2019-05-22T12:41:01.671Z,1.00
2019-05-22T12:43:34.620Z,1.00
2019-05-22T12:46:07.351Z,1.00
2019-05-22T12:48:39.577Z,1.00
2019-05-22T12:51:10.858Z,1.00
2019-05-22T12:53:41.269Z,1.00
2019-05-22T12:56:11.992Z,1.00
2019-05-22T12:58:42.721Z,1.00
2019-05-22T13:01:16.351Z,1.00
2019-05-22T13:03:49.517Z,1.00
2019-05-22T13:06:22.792Z,1.00
2019-05-22T13:08:53.801Z,1.00
2019-05-22T13:11:25.746Z,1.00
2019-05-22T13:13:56.636Z,1.00
2019-05-22T13:16:27.618Z,1.00
2019-05-22T13:18:59.974Z,1.00
2019-05-22T13:21:35.186Z,1.00
2019-05-22T13:24:15.974Z,1.00
2019-05-22T13:26:49.671Z,1.00
2019-05-22T13:29:20.390Z,1.00
2019-05-22T13:31:52.679Z,1.00
2019-05-22T13:34:26.823Z,1.00
2019-05-22T13:36:58.207Z,1.00
2019-05-22T13:39:32.955Z,1.00
2019-05-22T13:42:06.830Z,1.00
2019-05-22T13:44:38.158Z,1.00
2019-05-22T13:47:08.972Z,1.00
2019-05-22T13:49:41.371Z,1.00
2019-05-22T13:52:12.636Z,1.00
2019-05-22T13:54:45.215Z,1.00
2019-05-22T13:57:17.071Z,1.00
2019-05-22T13:59:48.177Z,1.00
2019-05-22T14:02:19.000Z,1.00
2019-05-22T14:04:49.920Z,1.00
2019-05-22T14:07:21.093Z,1.00
2019-05-22T14:09:54.503Z,1.00
2019-05-22T14:12:27.957Z,1.00
2019-05-22T14:14:58.350Z,1.00
2019-05-22T14:17:29.478Z,1.00
2019-05-22T14:20:02.904Z,1.00
2019-05-22T14:22:33.386Z,1.00
2019-05-22T14:25:04.239Z,1.00
2019-05-22T14:27:34.743Z,1.00
2019-05-22T14:30:06.517Z,1.00
2019-05-22T14:32:40.514Z,1.00
2019-05-22T14:35:13.981Z,1.00
2019-05-22T14:37:46.130Z,1.00
2019-05-22T14:40:16.914Z,1.00
2019-05-22T14:42:49.237Z,1.00
2019-05-22T14:45:19.990Z,1.00
2019-05-22T14:47:51.874Z,1.00
2019-05-22T14:50:23.315Z,1.00
2019-05-22T14:52:54.495Z,1.00
2019-05-22T14:55:26.497Z,1.00
2019-05-22T14:57:58.555Z,1.00
2019-05-22T15:00:29.585Z,1.00
2019-05-22T15:03:00.333Z,1.00
2019-05-22T15:05:32.818Z,1.00
2019-05-22T15:08:03.844Z,1.00
2019-05-22T15:10:35.877Z,1.00
2019-05-22T15:13:07.914Z,1.00
2019-05-22T15:15:40.439Z,1.00
2019-05-22T15:18:11.610Z,1.00
2019-05-22T15:20:56.741Z,1.00
2019-05-22T15:23:28.396Z,1.00
2019-05-22T15:26:01.716Z,1.00
2019-05-22T15:28:34.583Z,1.00
2019-05-22T15:31:07.867Z,1.00
2019-05-22T15:33:40.503Z,1.00
2019-05-22T15:36:14.044Z,1.00
2019-05-22T15:38:47.590Z,1.00
2019-05-22T15:41:18.439Z,1.00
2019-05-22T15:43:53.099Z,1.00
2019-05-22T15:46:27.300Z,1.00
2019-05-22T15:48:58.214Z,1.00
2019-05-22T15:51:32.682Z,1.00
2019-05-22T15:54:06.511Z,1.00
2019-05-22T15:56:40.133Z,1.00
2019-05-22T15:59:12.760Z,1.00
2019-05-22T16:01:46.032Z,1.00
2019-05-22T16:04:18.701Z,1.00
2019-05-22T16:06:50.305Z,1.00
2019-05-22T16:09:23.550Z,1.00
2019-05-22T16:11:55.430Z,1.00
2019-05-22T16:14:29.450Z,1.00
2019-05-22T16:17:01.931Z,1.00
2019-05-22T16:19:33.487Z,1.00
2019-05-22T16:22:09.921Z,1.00
2019-05-22T16:24:41.671Z,1.00
2019-05-22T16:27:14.293Z,1.00
2019-05-22T16:29:46.122Z,1.00
2019-05-22T16:32:19.329Z,1.00
2019-05-22T16:34:50.441Z,1.00
2019-05-22T16:37:22.797Z,1.00
2019-05-22T16:39:55.153Z,1.00
2019-05-22T16:42:28.925Z,1.00
2019-05-22T16:45:00.475Z,1.00
2019-05-22T16:47:33.524Z,1.00
2019-05-22T16:50:05.846Z,1.00
2019-05-22T16:52:39.090Z,1.00
2019-05-22T16:55:11.435Z,1.00
2019-05-22T16:57:43.927Z,1.00
2019-05-22T17:00:17.318Z,1.00
2019-05-22T17:02:50.341Z,1.00
2019-05-22T17:05:22.595Z,1.00
2019-05-22T17:07:54.863Z,1.00
2019-05-22T17:10:25.752Z,1.00
2019-05-22T17:12:58.786Z,1.00
2019-05-22T17:15:32.926Z,1.00
2019-05-22T17:18:04.615Z,1.00
2019-05-22T17:20:36.072Z,1.00
2019-05-22T17:23:08.108Z,1.00
2019-05-22T17:25:39.631Z,1.00
2019-05-22T17:28:12.510Z,1.00
2019-05-22T17:30:44.326Z,1.00
2019-05-22T17:33:15.269Z,1.00
2019-05-22T17:35:47.046Z,1.00
2019-05-22T17:38:19.951Z,1.00
2019-05-22T17:40:53.934Z,1.00
2019-05-22T17:43:27.940Z,1.00
2019-05-22T17:45:58.645Z,1.00
2019-05-22T17:48:30.084Z,1.00
2019-05-22T17:51:03.452Z,1.00
2019-05-22T17:53:35.798Z,1.00
2019-05-22T17:56:06.922Z,1.00
2019-05-22T17:58:37.915Z,1.00
2019-05-22T18:01:10.852Z,1.00
2019-05-22T18:03:42.051Z,1.00
2019-05-22T18:06:14.092Z,1.00
2019-05-22T18:08:45.498Z,1.00
2019-05-22T18:11:18.088Z,1.00
2019-05-22T18:14:00.834Z,1.00
2019-05-22T18:16:32.662Z,1.00
2019-05-22T18:19:05.130Z,1.00
2019-05-22T18:21:37.150Z,1.00
2019-05-22T18:24:10.418Z,1.00
2019-05-22T18:26:43.432Z,1.00
2019-05-22T18:29:16.693Z,1.00
2019-05-22T18:31:47.237Z,1.00
2019-05-22T18:34:19.645Z,1.00
2019-05-22T18:36:51.735Z,1.00
2019-05-22T18:39:23.908Z,1.00
2019-05-22T18:41:58.147Z,1.00
2019-05-22T18:44:31.767Z,1.00
2019-05-22T18:47:02.462Z,1.00
2019-05-22T18:49:33.247Z,1.00
2019-05-22T18:52:07.695Z,1.00
2019-05-22T18:54:38.600Z,1.00
2019-05-22T18:57:10.362Z,1.00
2019-05-22T18:59:43.538Z,1.00
2019-05-22T19:02:17.024Z,1.00
2019-05-22T19:04:48.329Z,1.00
2019-05-22T19:07:19.392Z,1.00
2019-05-22T19:09:50.491Z,1.00
2019-05-22T19:12:23.990Z,1.00
2019-05-22T19:14:54.510Z,1.00
2019-05-22T19:17:27.326Z,1.00
2019-05-22T19:19:58.486Z,1.00
2019-05-22T19:22:30.451Z,1.00
2019-05-22T19:25:01.783Z,1.00
2019-05-22T19:27:34.065Z,1.00
2019-05-22T19:30:06.855Z,1.00
2019-05-22T19:32:37.860Z,1.00
2019-05-22T19:35:11.386Z,1.00
2019-05-22T19:37:45.327Z,1.00
2019-05-22T19:40:19.422Z,1.00
2019-05-22T19:42:51.445Z,1.00
2019-05-22T19:45:24.172Z,1.00
2019-05-22T19:47:56.875Z,1.00
2019-05-22T19:50:28.871Z,1.00
2019-05-22T19:53:17.646Z,1.00
2019-05-22T19:55:33.308Z,1.00
2019-05-22T19:58:04.273Z,1.00
2019-05-22T20:00:35.291Z,1.00
2019-05-22T20:03:07.659Z,1.00
2019-05-22T20:05:38.525Z,1.00
2019-05-22T20:08:10.212Z,1.00
2019-05-22T20:10:41.632Z,1.00
2019-05-22T20:13:13.256Z,1.00
2019-05-22T20:15:44.002Z,1.00
2019-05-22T20:18:16.866Z,1.00
2019-05-22T20:20:47.726Z,1.00
2019-05-22T20:23:34.278Z,1.00
2019-05-22T20:25:51.321Z,1.00
2019-05-22T20:28:24.855Z,1.00
2019-05-22T20:30:55.725Z,1.20
2019-05-22T20:33:28.330Z,2.20
2019-05-22T20:35:58.829Z,1.70
2019-05-22T20:38:29.208Z,1.50
2019-05-22T20:40:59.733Z,1.60
2019-05-22T20:43:32.371Z,2.00
2019-05-22T20:46:04.224Z,1.70
2019-05-22T20:48:37.285Z,2.20
2019-05-22T20:51:11.636Z,1.70
2019-05-22T20:53:53.628Z,1.80
2019-05-22T20:56:16.949Z,2.20
2019-05-22T20:58:48.003Z,2.10
2019-05-22T21:01:19.245Z,2.40
2019-05-22T21:03:49.582Z,2.80
2019-05-22T21:06:24.225Z,2.30
2019-05-22T21:08:56.562Z,2.30
2019-05-22T21:11:28.300Z,2.40
2019-05-22T21:13:59.275Z,3.30
2019-05-22T21:16:31.577Z,2.80
2019-05-22T21:19:02.866Z,2.60
2019-05-22T21:21:34.252Z,2.90
2019-05-22T21:24:11.587Z,3.00
2019-05-22T21:26:38.649Z,2.90
2019-05-22T21:29:09.274Z,2.50
2019-05-22T21:31:40.215Z,2.90
2019-05-22T21:34:11.493Z,2.50
2019-05-22T21:36:42.655Z,3.10
2019-05-22T21:39:14.042Z,2.30
2019-05-22T21:41:45.019Z,2.50
2019-05-22T21:44:15.502Z,2.50
2019-05-22T21:46:46.239Z,3.00
2019-05-22T21:49:18.838Z,4.10
2019-05-22T21:51:50.113Z,3.40
2019-05-22T21:54:21.230Z,4.10
2019-05-22T21:56:53.304Z,4.50
2019-05-22T21:59:23.917Z,4.30
2019-05-22T22:02:05.043Z,4.00
2019-05-22T22:04:37.881Z,4.00
2019-05-22T22:07:09.749Z,4.10
2019-05-22T22:09:42.441Z,4.20
2019-05-22T22:12:17.166Z,3.60
2019-05-22T22:14:51.407Z,3.80
2019-05-22T22:17:24.098Z,4.40
2019-05-22T22:19:55.500Z,4.10
2019-05-22T22:22:31.098Z,4.30
2019-05-22T22:25:02.343Z,4.80
2019-05-22T22:27:34.107Z,4.40
2019-05-22T22:30:08.361Z,4.60
2019-05-22T22:32:40.093Z,5.30
2019-05-22T22:35:12.483Z,4.10
2019-05-22T22:37:43.951Z,3.40
2019-05-22T22:40:18.102Z,4.00
2019-05-22T22:42:51.451Z,5.00
2019-05-22T22:45:29.754Z,4.90
2019-05-22T22:48:00.430Z,4.50
2019-05-22T22:50:31.848Z,4.50
2019-05-22T22:53:04.058Z,4.60
2019-05-22T22:55:35.120Z,5.60
2019-05-22T22:58:16.482Z,5.80
2019-05-22T23:00:41.092Z,5.80
2019-05-22T23:03:14.250Z,5.60
2019-05-22T23:05:47.038Z,5.20
2019-05-22T23:08:21.024Z,5.70
2019-05-22T23:10:52.906Z,5.10
2019-05-22T23:13:25.394Z,5.40
2019-05-22T23:15:56.519Z,5.40
2019-05-22T23:19:06.808Z,4.10
2019-05-22T23:21:37.563Z,4.20
2019-05-22T23:24:07.303Z,4.10
2019-05-22T23:26:39.290Z,4.50
2019-05-22T23:29:11.534Z,4.70
2019-05-22T23:31:43.296Z,4.20
2019-05-22T23:34:15.191Z,4.80
2019-05-22T23:36:48.398Z,5.00
2019-05-22T23:39:20.994Z,5.80
2019-05-22T23:41:56.223Z,4.80
2019-05-22T23:44:26.109Z,4.10
2019-05-22T23:46:57.536Z,3.70
2019-05-22T23:49:28.514Z,3.50
2019-05-22T23:52:00.825Z,3.70
2019-05-22T23:54:32.224Z,2.90
2019-05-22T23:57:05.519Z,3.40
2019-05-22T23:59:37.776Z,3.10
